sensor_id;sensor_type;location;lat;lon;timestamp;temperature;humidity
74666;DHT22;63193;50.106;8.694;2022-09-16T00:00:20;18.10;57.30
74666;DHT22;63193;50.106;8.694;2022-09-16T00:02:46;18.10;57.40
74666;DHT22;63193;50.106;8.694;2022-09-16T00:05:12;18.00;57.60
74666;DHT22;63193;50.106;8.694;2022-09-16T00:07:38;18.00;57.70
74666;DHT22;63193;50.106;8.694;2022-09-16T00:10:04;18.00;57.70
74666;DHT22;63193;50.106;8.694;2022-09-16T00:12:30;17.90;57.70
74666;DHT22;63193;50.106;8.694;2022-09-16T00:14:56;18.00;58.00
74666;DHT22;63193;50.106;8.694;2022-09-16T00:17:22;17.90;58.10
74666;DHT22;63193;50.106;8.694;2022-09-16T00:19:47;18.00;58.10
74666;DHT22;63193;50.106;8.694;2022-09-16T00:22:15;18.00;58.00
74666;DHT22;63193;50.106;8.694;2022-09-16T00:24:41;18.00;57.80
74666;DHT22;63193;50.106;8.694;2022-09-16T00:27:07;18.00;57.80
74666;DHT22;63193;50.106;8.694;2022-09-16T00:29:32;18.00;57.50
74666;DHT22;63193;50.106;8.694;2022-09-16T00:31:58;18.00;57.30
74666;DHT22;63193;50.106;8.694;2022-09-16T00:34:24;18.00;57.10
74666;DHT22;63193;50.106;8.694;2022-09-16T00:36:49;18.00;56.50
74666;DHT22;63193;50.106;8.694;2022-09-16T00:39:15;18.00;57.40
74666;DHT22;63193;50.106;8.694;2022-09-16T00:41:41;17.90;57.10
74666;DHT22;63193;50.106;8.694;2022-09-16T00:47:11;17.90;56.70
74666;DHT22;63193;50.106;8.694;2022-09-16T00:49:37;18.00;56.90
74666;DHT22;63193;50.106;8.694;2022-09-16T00:52:04;17.90;56.90
74666;DHT22;63193;50.106;8.694;2022-09-16T00:54:32;18.00;57.00
74666;DHT22;63193;50.106;8.694;2022-09-16T00:56:59;18.00;57.10
74666;DHT22;63193;50.106;8.694;2022-09-16T00:59:30;18.00;56.90
74666;DHT22;63193;50.106;8.694;2022-09-16T01:02:00;17.90;57.20
74666;DHT22;63193;50.106;8.694;2022-09-16T01:04:36;17.90;57.00
74666;DHT22;63193;50.106;8.694;2022-09-16T01:07:04;17.90;57.10
74666;DHT22;63193;50.106;8.694;2022-09-16T01:09:30;17.90;57.20
74666;DHT22;63193;50.106;8.694;2022-09-16T01:11:56;17.90;57.00
74666;DHT22;63193;50.106;8.694;2022-09-16T01:14:22;17.90;57.40
74666;DHT22;63193;50.106;8.694;2022-09-16T01:18:03;17.90;56.90
74666;DHT22;63193;50.106;8.694;2022-09-16T01:20:20;17.70;56.90
74666;DHT22;63193;50.106;8.694;2022-09-16T01:32:32;17.50;58.00
74666;DHT22;63193;50.106;8.694;2022-09-16T01:45:07;17.60;58.00
74666;DHT22;63193;50.106;8.694;2022-09-16T01:47:58;17.60;57.60
74666;DHT22;63193;50.106;8.694;2022-09-16T01:50:47;17.70;57.70
74666;DHT22;63193;50.106;8.694;2022-09-16T01:53:20;17.70;57.50
74666;DHT22;63193;50.106;8.694;2022-09-16T01:56:17;17.70;57.10
74666;DHT22;63193;50.106;8.694;2022-09-16T01:58:47;17.70;57.20
74666;DHT22;63193;50.106;8.694;2022-09-16T02:01:21;17.70;57.10
74666;DHT22;63193;50.106;8.694;2022-09-16T02:03:53;17.70;57.00
74666;DHT22;63193;50.106;8.694;2022-09-16T02:06:23;17.70;56.80
74666;DHT22;63193;50.106;8.694;2022-09-16T02:08:54;17.70;57.10
74666;DHT22;63193;50.106;8.694;2022-09-16T02:11:22;17.70;56.60
74666;DHT22;63193;50.106;8.694;2022-09-16T02:13:58;17.60;56.70
74666;DHT22;63193;50.106;8.694;2022-09-16T02:16:29;17.50;56.00
74666;DHT22;63193;50.106;8.694;2022-09-16T02:19:00;17.50;56.10
74666;DHT22;63193;50.106;8.694;2022-09-16T02:21:31;17.40;56.10
74666;DHT22;63193;50.106;8.694;2022-09-16T02:24:01;17.40;56.20
74666;DHT22;63193;50.106;8.694;2022-09-16T02:26:31;17.40;56.30
74666;DHT22;63193;50.106;8.694;2022-09-16T02:28:58;17.30;56.50
74666;DHT22;63193;50.106;8.694;2022-09-16T02:31:31;17.30;56.60
74666;DHT22;63193;50.106;8.694;2022-09-16T02:34:06;17.30;56.80
74666;DHT22;63193;50.106;8.694;2022-09-16T02:36:36;17.20;56.80
74666;DHT22;63193;50.106;8.694;2022-09-16T02:39:10;17.20;56.90
74666;DHT22;63193;50.106;8.694;2022-09-16T02:41:38;17.30;57.30
74666;DHT22;63193;50.106;8.694;2022-09-16T02:44:04;17.20;57.30
74666;DHT22;63193;50.106;8.694;2022-09-16T02:46:41;17.30;57.30
74666;DHT22;63193;50.106;8.694;2022-09-16T02:50:06;17.20;57.50
74666;DHT22;63193;50.106;8.694;2022-09-16T02:53:20;17.20;57.70
74666;DHT22;63193;50.106;8.694;2022-09-16T02:55:57;17.20;58.00
74666;DHT22;63193;50.106;8.694;2022-09-16T02:58:25;17.20;58.00
74666;DHT22;63193;50.106;8.694;2022-09-16T03:00:52;17.20;58.40
74666;DHT22;63193;50.106;8.694;2022-09-16T03:03:19;17.10;58.30
74666;DHT22;63193;50.106;8.694;2022-09-16T03:08:51;17.20;58.10
74666;DHT22;63193;50.106;8.694;2022-09-16T03:11:38;17.10;58.20
74666;DHT22;63193;50.106;8.694;2022-09-16T03:14:27;17.20;58.30
74666;DHT22;63193;50.106;8.694;2022-09-16T03:26:19;17.10;58.00
74666;DHT22;63193;50.106;8.694;2022-09-16T03:28:54;17.00;58.20
74666;DHT22;63193;50.106;8.694;2022-09-16T03:34:56;17.00;58.40
74666;DHT22;63193;50.106;8.694;2022-09-16T03:37:27;17.00;58.50
74666;DHT22;63193;50.106;8.694;2022-09-16T03:39:57;17.00;58.60
74666;DHT22;63193;50.106;8.694;2022-09-16T03:42:24;17.00;58.70
74666;DHT22;63193;50.106;8.694;2022-09-16T03:44:49;16.90;58.60
74666;DHT22;63193;50.106;8.694;2022-09-16T03:47:15;16.90;58.70
74666;DHT22;63193;50.106;8.694;2022-09-16T03:49:41;16.90;58.90
74666;DHT22;63193;50.106;8.694;2022-09-16T03:52:07;17.00;58.80
74666;DHT22;63193;50.106;8.694;2022-09-16T03:54:33;17.00;58.80
74666;DHT22;63193;50.106;8.694;2022-09-16T03:56:59;17.00;58.70
74666;DHT22;63193;50.106;8.694;2022-09-16T03:59:26;17.00;58.90
74666;DHT22;63193;50.106;8.694;2022-09-16T04:01:52;16.90;59.00
74666;DHT22;63193;50.106;8.694;2022-09-16T04:04:17;16.90;59.00
74666;DHT22;63193;50.106;8.694;2022-09-16T04:06:43;16.90;59.30
74666;DHT22;63193;50.106;8.694;2022-09-16T04:09:12;16.90;59.40
74666;DHT22;63193;50.106;8.694;2022-09-16T04:11:39;16.90;59.40
74666;DHT22;63193;50.106;8.694;2022-09-16T04:14:05;16.90;59.50
74666;DHT22;63193;50.106;8.694;2022-09-16T04:16:31;16.80;59.50
74666;DHT22;63193;50.106;8.694;2022-09-16T04:18:56;16.90;59.50
74666;DHT22;63193;50.106;8.694;2022-09-16T04:21:22;16.90;59.50
74666;DHT22;63193;50.106;8.694;2022-09-16T04:23:48;16.90;59.50
74666;DHT22;63193;50.106;8.694;2022-09-16T04:26:14;16.90;59.50
74666;DHT22;63193;50.106;8.694;2022-09-16T04:28:40;16.90;59.60
74666;DHT22;63193;50.106;8.694;2022-09-16T04:31:10;16.80;59.80
74666;DHT22;63193;50.106;8.694;2022-09-16T04:33:36;16.80;59.70
74666;DHT22;63193;50.106;8.694;2022-09-16T04:36:11;16.80;59.90
74666;DHT22;63193;50.106;8.694;2022-09-16T04:38:37;16.70;60.10
74666;DHT22;63193;50.106;8.694;2022-09-16T04:41:06;16.60;60.40
74666;DHT22;63193;50.106;8.694;2022-09-16T04:43:32;16.70;60.40
74666;DHT22;63193;50.106;8.694;2022-09-16T04:45:58;16.70;60.50
74666;DHT22;63193;50.106;8.694;2022-09-16T04:48:24;16.70;60.40
74666;DHT22;63193;50.106;8.694;2022-09-16T04:50:53;16.70;60.00
74666;DHT22;63193;50.106;8.694;2022-09-16T04:53:19;16.70;60.20
74666;DHT22;63193;50.106;8.694;2022-09-16T04:55:46;16.70;60.10
74666;DHT22;63193;50.106;8.694;2022-09-16T04:58:13;16.60;60.40
74666;DHT22;63193;50.106;8.694;2022-09-16T05:00:38;16.60;61.30
74666;DHT22;63193;50.106;8.694;2022-09-16T05:03:04;16.60;60.60
74666;DHT22;63193;50.106;8.694;2022-09-16T05:05:30;16.60;60.80
74666;DHT22;63193;50.106;8.694;2022-09-16T05:07:55;16.60;61.20
74666;DHT22;63193;50.106;8.694;2022-09-16T05:10:21;16.60;61.40
74666;DHT22;63193;50.106;8.694;2022-09-16T05:12:51;16.60;60.70
74666;DHT22;63193;50.106;8.694;2022-09-16T05:15:17;16.60;60.50
74666;DHT22;63193;50.106;8.694;2022-09-16T05:17:42;16.60;60.70
74666;DHT22;63193;50.106;8.694;2022-09-16T05:20:08;16.50;60.80
74666;DHT22;63193;50.106;8.694;2022-09-16T05:22:34;16.40;61.20
74666;DHT22;63193;50.106;8.694;2022-09-16T05:25:00;16.30;61.60
74666;DHT22;63193;50.106;8.694;2022-09-16T05:27:29;16.40;61.70
74666;DHT22;63193;50.106;8.694;2022-09-16T05:29:55;16.40;61.80
74666;DHT22;63193;50.106;8.694;2022-09-16T05:32:21;16.40;61.80
74666;DHT22;63193;50.106;8.694;2022-09-16T05:34:46;16.30;62.00
74666;DHT22;63193;50.106;8.694;2022-09-16T05:37:12;16.40;62.00
74666;DHT22;63193;50.106;8.694;2022-09-16T05:39:37;16.30;62.20
74666;DHT22;63193;50.106;8.694;2022-09-16T05:42:03;16.30;62.40
74666;DHT22;63193;50.106;8.694;2022-09-16T05:44:29;16.30;62.50
74666;DHT22;63193;50.106;8.694;2022-09-16T05:46:55;16.30;62.40
74666;DHT22;63193;50.106;8.694;2022-09-16T05:49:21;16.40;62.40
74666;DHT22;63193;50.106;8.694;2022-09-16T05:51:48;16.40;62.20
74666;DHT22;63193;50.106;8.694;2022-09-16T05:54:14;16.50;62.40
74666;DHT22;63193;50.106;8.694;2022-09-16T05:56:42;16.50;62.20
74666;DHT22;63193;50.106;8.694;2022-09-16T05:59:10;16.50;62.40
74666;DHT22;63193;50.106;8.694;2022-09-16T06:01:36;16.60;62.20
74666;DHT22;63193;50.106;8.694;2022-09-16T06:04:05;16.60;62.20
74666;DHT22;63193;50.106;8.694;2022-09-16T06:06:36;16.60;62.50
74666;DHT22;63193;50.106;8.694;2022-09-16T06:09:25;16.60;62.00
74666;DHT22;63193;50.106;8.694;2022-09-16T06:11:53;16.60;62.20
74666;DHT22;63193;50.106;8.694;2022-09-16T06:14:19;16.60;62.00
74666;DHT22;63193;50.106;8.694;2022-09-16T06:16:46;16.60;61.80
74666;DHT22;63193;50.106;8.694;2022-09-16T06:19:14;16.70;61.80
74666;DHT22;63193;50.106;8.694;2022-09-16T06:21:42;16.70;61.70
74666;DHT22;63193;50.106;8.694;2022-09-16T06:24:08;16.70;61.50
74666;DHT22;63193;50.106;8.694;2022-09-16T06:26:39;16.90;61.40
74666;DHT22;63193;50.106;8.694;2022-09-16T06:29:05;16.90;60.80
74666;DHT22;63193;50.106;8.694;2022-09-16T06:31:32;17.10;60.70
74666;DHT22;63193;50.106;8.694;2022-09-16T06:33:58;17.10;60.50
74666;DHT22;63193;50.106;8.694;2022-09-16T06:36:28;17.10;60.50
74666;DHT22;63193;50.106;8.694;2022-09-16T06:38:54;17.10;60.70
74666;DHT22;63193;50.106;8.694;2022-09-16T06:41:20;17.10;60.20
74666;DHT22;63193;50.106;8.694;2022-09-16T06:43:47;17.10;59.80
74666;DHT22;63193;50.106;8.694;2022-09-16T06:46:15;17.10;60.00
74666;DHT22;63193;50.106;8.694;2022-09-16T06:48:46;17.00;60.10
74666;DHT22;63193;50.106;8.694;2022-09-16T06:51:14;17.00;60.30
74666;DHT22;63193;50.106;8.694;2022-09-16T06:53:41;17.00;60.60
74666;DHT22;63193;50.106;8.694;2022-09-16T06:56:09;16.90;60.90
74666;DHT22;63193;50.106;8.694;2022-09-16T06:58:39;17.00;60.90
74666;DHT22;63193;50.106;8.694;2022-09-16T07:01:10;17.10;60.30
74666;DHT22;63193;50.106;8.694;2022-09-16T07:03:38;17.10;60.20
74666;DHT22;63193;50.106;8.694;2022-09-16T07:06:04;17.10;60.20
74666;DHT22;63193;50.106;8.694;2022-09-16T07:08:31;17.10;60.20
74666;DHT22;63193;50.106;8.694;2022-09-16T07:11:05;17.10;60.20
74666;DHT22;63193;50.106;8.694;2022-09-16T07:13:31;17.20;59.90
74666;DHT22;63193;50.106;8.694;2022-09-16T07:16:01;17.20;59.60
74666;DHT22;63193;50.106;8.694;2022-09-16T07:18:28;17.30;59.60
74666;DHT22;63193;50.106;8.694;2022-09-16T07:21:00;17.40;59.60
74666;DHT22;63193;50.106;8.694;2022-09-16T07:23:28;17.40;59.40
74666;DHT22;63193;50.106;8.694;2022-09-16T07:26:06;17.50;58.70
74666;DHT22;63193;50.106;8.694;2022-09-16T07:28:33;17.40;58.20
74666;DHT22;63193;50.106;8.694;2022-09-16T07:31:03;17.40;58.40
74666;DHT22;63193;50.106;8.694;2022-09-16T07:33:30;17.40;58.60
74666;DHT22;63193;50.106;8.694;2022-09-16T07:35:59;17.30;58.50
74666;DHT22;63193;50.106;8.694;2022-09-16T07:38:26;17.10;58.40
74666;DHT22;63193;50.106;8.694;2022-09-16T07:40:52;16.90;59.10
74666;DHT22;63193;50.106;8.694;2022-09-16T07:43:17;16.90;59.40
74666;DHT22;63193;50.106;8.694;2022-09-16T07:45:43;16.90;58.70
74666;DHT22;63193;50.106;8.694;2022-09-16T07:48:08;16.90;58.30
74666;DHT22;63193;50.106;8.694;2022-09-16T07:50:34;17.10;58.40
74666;DHT22;63193;50.106;8.694;2022-09-16T07:53:00;17.20;57.80
74666;DHT22;63193;50.106;8.694;2022-09-16T07:55:25;17.30;57.40
74666;DHT22;63193;50.106;8.694;2022-09-16T07:57:52;17.40;57.50
74666;DHT22;63193;50.106;8.694;2022-09-16T08:00:18;17.60;57.20
74666;DHT22;63193;50.106;8.694;2022-09-16T08:02:43;17.60;56.80
74666;DHT22;63193;50.106;8.694;2022-09-16T08:05:09;17.80;56.00
74666;DHT22;63193;50.106;8.694;2022-09-16T08:07:35;17.90;55.50
74666;DHT22;63193;50.106;8.694;2022-09-16T08:10:01;17.90;55.20
74666;DHT22;63193;50.106;8.694;2022-09-16T08:12:26;17.90;55.40
74666;DHT22;63193;50.106;8.694;2022-09-16T08:14:57;17.90;55.40
74666;DHT22;63193;50.106;8.694;2022-09-16T08:17:23;17.90;54.90
74666;DHT22;63193;50.106;8.694;2022-09-16T08:19:49;18.00;54.50
74666;DHT22;63193;50.106;8.694;2022-09-16T08:22:14;18.00;54.40
74666;DHT22;63193;50.106;8.694;2022-09-16T08:24:40;17.90;54.60
74666;DHT22;63193;50.106;8.694;2022-09-16T08:27:05;17.80;54.60
74666;DHT22;63193;50.106;8.694;2022-09-16T08:29:31;17.80;54.40
74666;DHT22;63193;50.106;8.694;2022-09-16T08:31:56;17.90;53.90
74666;DHT22;63193;50.106;8.694;2022-09-16T08:34:22;18.20;52.90
74666;DHT22;63193;50.106;8.694;2022-09-16T08:36:47;18.30;52.60
74666;DHT22;63193;50.106;8.694;2022-09-16T08:39:13;18.10;52.80
74666;DHT22;63193;50.106;8.694;2022-09-16T08:45:05;18.10;53.20
74666;DHT22;63193;50.106;8.694;2022-09-16T08:49:19;18.20;52.80
74666;DHT22;63193;50.106;8.694;2022-09-16T08:50:41;18.20;53.60
74666;DHT22;63193;50.106;8.694;2022-09-16T08:53:22;18.40;53.30
74666;DHT22;63193;50.106;8.694;2022-09-16T08:55:51;20.10;49.20
74666;DHT22;63193;50.106;8.694;2022-09-16T08:58:19;22.40;44.70
74666;DHT22;63193;50.106;8.694;2022-09-16T09:01:03;24.60;39.80
74666;DHT22;63193;50.106;8.694;2022-09-16T09:03:40;26.70;35.50
74666;DHT22;63193;50.106;8.694;2022-09-16T09:10:20;27.50;31.60
74666;DHT22;63193;50.106;8.694;2022-09-16T09:12:48;30.10;28.80
74666;DHT22;63193;50.106;8.694;2022-09-16T09:15:26;31.50;27.30
74666;DHT22;63193;50.106;8.694;2022-09-16T09:22:04;33.30;25.60
74666;DHT22;63193;50.106;8.694;2022-09-16T09:24:51;33.10;24.80
74666;DHT22;63193;50.106;8.694;2022-09-16T09:27:48;31.00;26.50
74666;DHT22;63193;50.106;8.694;2022-09-16T09:30:20;28.60;27.70
74666;DHT22;63193;50.106;8.694;2022-09-16T09:41:54;22.30;38.40
74666;DHT22;63193;50.106;8.694;2022-09-16T09:44:56;21.60;39.40
74666;DHT22;63193;50.106;8.694;2022-09-16T09:48:03;21.30;40.90
74666;DHT22;63193;50.106;8.694;2022-09-16T09:50:39;21.20;41.30
74666;DHT22;63193;50.106;8.694;2022-09-16T09:53:33;21.10;41.60
74666;DHT22;63193;50.106;8.694;2022-09-16T10:01:53;22.30;39.20
74666;DHT22;63193;50.106;8.694;2022-09-16T10:04:19;21.90;40.20
74666;DHT22;63193;50.106;8.694;2022-09-16T10:06:45;21.40;41.40
74666;DHT22;63193;50.106;8.694;2022-09-16T10:09:14;21.10;41.70
74666;DHT22;63193;50.106;8.694;2022-09-16T10:11:49;20.80;41.80
74666;DHT22;63193;50.106;8.694;2022-09-16T10:14:44;20.80;42.20
74666;DHT22;63193;50.106;8.694;2022-09-16T10:17:15;20.80;42.60
74666;DHT22;63193;50.106;8.694;2022-09-16T10:20:03;20.70;42.80
74666;DHT22;63193;50.106;8.694;2022-09-16T10:22:34;20.50;42.80
74666;DHT22;63193;50.106;8.694;2022-09-16T10:25:04;20.20;43.40
74666;DHT22;63193;50.106;8.694;2022-09-16T10:27:36;20.00;44.30
74666;DHT22;63193;50.106;8.694;2022-09-16T10:30:22;20.00;44.10
74666;DHT22;63193;50.106;8.694;2022-09-16T10:35:22;20.10;44.80
74666;DHT22;63193;50.106;8.694;2022-09-16T10:38:00;20.10;44.50
74666;DHT22;63193;50.106;8.694;2022-09-16T10:40:26;20.00;44.90
74666;DHT22;63193;50.106;8.694;2022-09-16T10:42:54;20.10;44.80
74666;DHT22;63193;50.106;8.694;2022-09-16T10:45:26;19.90;45.10
74666;DHT22;63193;50.106;8.694;2022-09-16T10:47:59;19.70;45.70
74666;DHT22;63193;50.106;8.694;2022-09-16T10:50:26;19.70;45.80
74666;DHT22;63193;50.106;8.694;2022-09-16T10:52:53;19.70;45.80
74666;DHT22;63193;50.106;8.694;2022-09-16T10:55:29;19.80;46.30
74666;DHT22;63193;50.106;8.694;2022-09-16T10:58:08;19.90;45.70
74666;DHT22;63193;50.106;8.694;2022-09-16T11:04:04;19.90;45.30
74666;DHT22;63193;50.106;8.694;2022-09-16T11:07:48;19.90;45.10
74666;DHT22;63193;50.106;8.694;2022-09-16T11:10:12;20.10;44.90
74666;DHT22;63193;50.106;8.694;2022-09-16T11:16:16;20.00;44.10
74666;DHT22;63193;50.106;8.694;2022-09-16T11:18:54;20.00;44.00
74666;DHT22;63193;50.106;8.694;2022-09-16T11:24:50;20.70;43.30
74666;DHT22;63193;50.106;8.694;2022-09-16T11:30:19;20.50;44.10
74666;DHT22;63193;50.106;8.694;2022-09-16T11:45:19;21.20;43.00
74666;DHT22;63193;50.106;8.694;2022-09-16T11:50:48;21.10;42.40
74666;DHT22;63193;50.106;8.694;2022-09-16T11:56:42;20.60;43.70
74666;DHT22;63193;50.106;8.694;2022-09-16T11:59:27;20.30;49.30
74666;DHT22;63193;50.106;8.694;2022-09-16T12:03:04;19.10;68.60
74666;DHT22;63193;50.106;8.694;2022-09-16T12:05:20;17.80;80.00
74666;DHT22;63193;50.106;8.694;2022-09-16T12:07:59;17.20;88.60
74666;DHT22;63193;50.106;8.694;2022-09-16T12:10:32;16.90;87.10
74666;DHT22;63193;50.106;8.694;2022-09-16T12:13:06;16.80;85.60
74666;DHT22;63193;50.106;8.694;2022-09-16T12:15:46;16.70;81.50
74666;DHT22;63193;50.106;8.694;2022-09-16T12:18:23;16.70;80.60
74666;DHT22;63193;50.106;8.694;2022-09-16T12:20:54;16.70;76.90
74666;DHT22;63193;50.106;8.694;2022-09-16T12:23:26;16.90;79.30
74666;DHT22;63193;50.106;8.694;2022-09-16T12:26:08;17.10;74.70
74666;DHT22;63193;50.106;8.694;2022-09-16T12:28:50;17.30;75.60
74666;DHT22;63193;50.106;8.694;2022-09-16T12:31:50;17.50;71.10
74666;DHT22;63193;50.106;8.694;2022-09-16T12:34:25;17.80;69.20
74666;DHT22;63193;50.106;8.694;2022-09-16T12:37:03;18.10;67.00
74666;DHT22;63193;50.106;8.694;2022-09-16T12:39:29;18.30;66.50
74666;DHT22;63193;50.106;8.694;2022-09-16T12:51:07;19.10;62.30
74666;DHT22;63193;50.106;8.694;2022-09-16T12:54:05;19.00;59.60
74666;DHT22;63193;50.106;8.694;2022-09-16T13:03:16;18.40;61.10
74666;DHT22;63193;50.106;8.694;2022-09-16T13:05:45;18.50;63.00
74666;DHT22;63193;50.106;8.694;2022-09-16T13:08:21;18.50;61.60
74666;DHT22;63193;50.106;8.694;2022-09-16T13:10:58;18.50;60.00
74666;DHT22;63193;50.106;8.694;2022-09-16T13:13:39;18.50;60.70
74666;DHT22;63193;50.106;8.694;2022-09-16T13:16:07;18.60;60.20
74666;DHT22;63193;50.106;8.694;2022-09-16T13:18:48;18.70;59.10
74666;DHT22;63193;50.106;8.694;2022-09-16T13:21:26;18.70;57.50
74666;DHT22;63193;50.106;8.694;2022-09-16T13:24:03;18.80;56.40
74666;DHT22;63193;50.106;8.694;2022-09-16T13:26:40;18.90;56.40
74666;DHT22;63193;50.106;8.694;2022-09-16T13:29:40;19.00;55.30
74666;DHT22;63193;50.106;8.694;2022-09-16T13:32:37;19.10;54.10
74666;DHT22;63193;50.106;8.694;2022-09-16T13:37:49;19.30;51.80
74666;DHT22;63193;50.106;8.694;2022-09-16T13:40:27;19.50;50.60
74666;DHT22;63193;50.106;8.694;2022-09-16T13:43:12;19.60;50.30
74666;DHT22;63193;50.106;8.694;2022-09-16T13:45:43;19.90;49.00
74666;DHT22;63193;50.106;8.694;2022-09-16T13:48:18;20.10;48.90
74666;DHT22;63193;50.106;8.694;2022-09-16T13:50:50;20.30;47.70
74666;DHT22;63193;50.106;8.694;2022-09-16T13:53:35;20.50;47.50
74666;DHT22;63193;50.106;8.694;2022-09-16T14:02:53;19.90;48.30
74666;DHT22;63193;50.106;8.694;2022-09-16T14:05:42;19.70;52.40
74666;DHT22;63193;50.106;8.694;2022-09-16T14:08:38;19.60;54.10
74666;DHT22;63193;50.106;8.694;2022-09-16T14:11:39;19.40;54.60
74666;DHT22;63193;50.106;8.694;2022-09-16T14:14:16;19.30;53.30
74666;DHT22;63193;50.106;8.694;2022-09-16T14:16:44;19.10;52.20
74666;DHT22;63193;50.106;8.694;2022-09-16T14:19:26;18.90;54.40
74666;DHT22;63193;50.106;8.694;2022-09-16T14:22:10;18.90;57.30
74666;DHT22;63193;50.106;8.694;2022-09-16T14:24:39;18.80;56.70
74666;DHT22;63193;50.106;8.694;2022-09-16T14:27:16;18.70;57.40
74666;DHT22;63193;50.106;8.694;2022-09-16T14:29:53;18.60;57.60
74666;DHT22;63193;50.106;8.694;2022-09-16T14:32:19;18.60;57.00
74666;DHT22;63193;50.106;8.694;2022-09-16T14:34:44;18.50;56.10
74666;DHT22;63193;50.106;8.694;2022-09-16T14:37:14;18.60;56.80
74666;DHT22;63193;50.106;8.694;2022-09-16T14:39:42;18.70;56.40
74666;DHT22;63193;50.106;8.694;2022-09-16T14:42:16;18.90;57.00
74666;DHT22;63193;50.106;8.694;2022-09-16T14:44:46;19.00;57.60
74666;DHT22;63193;50.106;8.694;2022-09-16T14:47:31;19.00;57.50
74666;DHT22;63193;50.106;8.694;2022-09-16T14:50:09;19.20;57.80
74666;DHT22;63193;50.106;8.694;2022-09-16T14:52:37;19.30;58.10
74666;DHT22;63193;50.106;8.694;2022-09-16T14:55:29;19.20;59.00
74666;DHT22;63193;50.106;8.694;2022-09-16T14:57:57;19.10;60.10
74666;DHT22;63193;50.106;8.694;2022-09-16T15:06:19;18.90;59.60
74666;DHT22;63193;50.106;8.694;2022-09-16T15:08:50;19.00;59.80
74666;DHT22;63193;50.106;8.694;2022-09-16T15:11:20;19.00;60.50
74666;DHT22;63193;50.106;8.694;2022-09-16T15:13:46;18.90;61.50
74666;DHT22;63193;50.106;8.694;2022-09-16T15:16:15;18.80;60.20
74666;DHT22;63193;50.106;8.694;2022-09-16T15:19:02;18.90;61.50
74666;DHT22;63193;50.106;8.694;2022-09-16T15:21:31;18.90;60.80
74666;DHT22;63193;50.106;8.694;2022-09-16T15:24:01;18.90;60.40
74666;DHT22;63193;50.106;8.694;2022-09-16T15:26:30;18.90;60.50
74666;DHT22;63193;50.106;8.694;2022-09-16T15:29:06;18.80;61.80
74666;DHT22;63193;50.106;8.694;2022-09-16T15:31:39;18.80;56.40
74666;DHT22;63193;50.106;8.694;2022-09-16T15:34:25;18.40;52.70
74666;DHT22;63193;50.106;8.694;2022-09-16T15:36:57;17.90;53.00
74666;DHT22;63193;50.106;8.694;2022-09-16T15:39:31;17.70;53.60
74666;DHT22;63193;50.106;8.694;2022-09-16T15:42:19;17.50;54.30
74666;DHT22;63193;50.106;8.694;2022-09-16T15:44:55;17.40;54.30
74666;DHT22;63193;50.106;8.694;2022-09-16T15:47:30;17.40;55.30
74666;DHT22;63193;50.106;8.694;2022-09-16T15:52:27;17.40;54.20
74666;DHT22;63193;50.106;8.694;2022-09-16T15:54:57;17.40;56.00
74666;DHT22;63193;50.106;8.694;2022-09-16T15:57:34;17.30;62.00
74666;DHT22;63193;50.106;8.694;2022-09-16T16:00:10;17.00;61.10
74666;DHT22;63193;50.106;8.694;2022-09-16T16:02:45;16.80;61.40
74666;DHT22;63193;50.106;8.694;2022-09-16T16:05:20;16.50;62.40
74666;DHT22;63193;50.106;8.694;2022-09-16T16:07:55;16.20;65.40
74666;DHT22;63193;50.106;8.694;2022-09-16T16:10:23;16.20;63.30
74666;DHT22;63193;50.106;8.694;2022-09-16T16:15:18;16.40;63.10
74666;DHT22;63193;50.106;8.694;2022-09-16T16:17:46;16.50;61.90
74666;DHT22;63193;50.106;8.694;2022-09-16T16:20:13;16.70;61.30
74666;DHT22;63193;50.106;8.694;2022-09-16T16:22:39;16.80;60.70
74666;DHT22;63193;50.106;8.694;2022-09-16T16:25:06;16.90;59.60
74666;DHT22;63193;50.106;8.694;2022-09-16T16:27:32;17.00;59.40
74666;DHT22;63193;50.106;8.694;2022-09-16T16:29:58;17.10;60.10
74666;DHT22;63193;50.106;8.694;2022-09-16T16:32:24;17.10;60.90
74666;DHT22;63193;50.106;8.694;2022-09-16T16:34:50;17.10;60.50
74666;DHT22;63193;50.106;8.694;2022-09-16T16:37:17;17.10;59.30
74666;DHT22;63193;50.106;8.694;2022-09-16T16:39:44;17.10;58.70
74666;DHT22;63193;50.106;8.694;2022-09-16T16:42:11;17.10;59.00
74666;DHT22;63193;50.106;8.694;2022-09-16T16:44:37;17.10;59.60
74666;DHT22;63193;50.106;8.694;2022-09-16T16:47:03;17.10;60.20
74666;DHT22;63193;50.106;8.694;2022-09-16T16:49:29;17.20;59.80
74666;DHT22;63193;50.106;8.694;2022-09-16T16:51:54;17.10;59.60
74666;DHT22;63193;50.106;8.694;2022-09-16T16:54:22;17.00;60.60
74666;DHT22;63193;50.106;8.694;2022-09-16T16:56:48;16.90;61.80
74666;DHT22;63193;50.106;8.694;2022-09-16T16:59:14;16.80;61.50
74666;DHT22;63193;50.106;8.694;2022-09-16T17:01:41;16.70;62.20
74666;DHT22;63193;50.106;8.694;2022-09-16T17:04:07;16.60;62.70
74666;DHT22;63193;50.106;8.694;2022-09-16T17:06:34;16.60;63.00
74666;DHT22;63193;50.106;8.694;2022-09-16T17:09:00;16.50;62.10
74666;DHT22;63193;50.106;8.694;2022-09-16T17:11:25;16.50;63.30
74666;DHT22;63193;50.106;8.694;2022-09-16T17:13:56;16.40;63.70
74666;DHT22;63193;50.106;8.694;2022-09-16T17:16:22;16.40;63.60
74666;DHT22;63193;50.106;8.694;2022-09-16T17:18:49;16.40;62.80
74666;DHT22;63193;50.106;8.694;2022-09-16T17:21:18;16.30;61.50
74666;DHT22;63193;50.106;8.694;2022-09-16T17:23:44;16.40;62.30
74666;DHT22;63193;50.106;8.694;2022-09-16T17:26:11;16.40;63.30
74666;DHT22;63193;50.106;8.694;2022-09-16T17:28:38;16.40;62.70
74666;DHT22;63193;50.106;8.694;2022-09-16T17:31:12;16.40;62.70
74666;DHT22;63193;50.106;8.694;2022-09-16T17:33:39;16.40;62.90
74666;DHT22;63193;50.106;8.694;2022-09-16T17:36:06;16.30;66.00
74666;DHT22;63193;50.106;8.694;2022-09-16T17:38:33;16.20;67.10
74666;DHT22;63193;50.106;8.694;2022-09-16T17:41:10;16.10;68.20
74666;DHT22;63193;50.106;8.694;2022-09-16T17:43:36;16.10;69.10
74666;DHT22;63193;50.106;8.694;2022-09-16T17:46:05;16.00;69.70
74666;DHT22;63193;50.106;8.694;2022-09-16T17:48:31;16.00;69.90
74666;DHT22;63193;50.106;8.694;2022-09-16T17:50:57;15.90;70.20
74666;DHT22;63193;50.106;8.694;2022-09-16T17:53:22;15.90;70.20
74666;DHT22;63193;50.106;8.694;2022-09-16T17:55:49;15.90;70.50
74666;DHT22;63193;50.106;8.694;2022-09-16T17:58:15;15.80;70.30
74666;DHT22;63193;50.106;8.694;2022-09-16T18:00:41;15.90;70.30
74666;DHT22;63193;50.106;8.694;2022-09-16T18:03:09;15.80;69.80
74666;DHT22;63193;50.106;8.694;2022-09-16T18:05:36;15.80;69.60
74666;DHT22;63193;50.106;8.694;2022-09-16T18:08:02;15.80;69.50
74666;DHT22;63193;50.106;8.694;2022-09-16T18:10:28;15.80;69.60
74666;DHT22;63193;50.106;8.694;2022-09-16T18:12:54;15.80;67.20